sensor_id;sensor_type;location;lat;lon;timestamp;P1;durP1;ratioP1;P2;durP2;ratioP2
70216;SDS011;65567;55.684;37.570;2024-01-10T00:02:06;4.93;;;2.10;;
70216;SDS011;65567;55.684;37.570;2024-01-10T00:04:32;3.28;;;2.15;;
70216;SDS011;65567;55.684;37.570;2024-01-10T00:06:58;4.97;;;2.13;;
70216;SDS011;65567;55.684;37.570;2024-01-10T00:09:23;3.75;;;2.00;;
70216;SDS011;65567;55.684;37.570;2024-01-10T00:11:49;4.90;;;2.05;;
70216;SDS011;65567;55.684;37.570;2024-01-10T00:14:15;4.25;;;2.20;;
70216;SDS011;65567;55.684;37.570;2024-01-10T00:16:41;2.85;;;1.73;;
70216;SDS011;65567;55.684;37.570;2024-01-10T00:19:07;2.92;;;1.88;;
70216;SDS011;65567;55.684;37.570;2024-01-10T00:21:33;4.07;;;1.80;;
70216;SDS011;65567;55.684;37.570;2024-01-10T00:24:00;3.72;;;1.80;;
70216;SDS011;65567;55.684;37.570;2024-01-10T00:26:26;3.38;;;1.90;;
70216;SDS011;65567;55.684;37.570;2024-01-10T00:28:51;3.40;;;2.00;;
70216;SDS011;65567;55.684;37.570;2024-01-10T00:31:20;4.32;;;2.22;;
70216;SDS011;65567;55.684;37.570;2024-01-10T00:33:46;3.90;;;1.90;;
70216;SDS011;65567;55.684;37.570;2024-01-10T00:36:15;3.45;;;2.00;;
70216;SDS011;65567;55.684;37.570;2024-01-10T00:38:41;3.15;;;1.38;;
70216;SDS011;65567;55.684;37.570;2024-01-10T00:41:07;2.45;;;1.48;;
70216;SDS011;65567;55.684;37.570;2024-01-10T00:43:32;3.10;;;1.75;;
70216;SDS011;65567;55.684;37.570;2024-01-10T00:45:58;2.67;;;1.45;;
70216;SDS011;65567;55.684;37.570;2024-01-10T00:48:25;2.50;;;1.50;;
70216;SDS011;65567;55.684;37.570;2024-01-10T00:50:50;2.80;;;1.40;;
70216;SDS011;65567;55.684;37.570;2024-01-10T00:53:17;2.33;;;1.30;;
70216;SDS011;65567;55.684;37.570;2024-01-10T00:55:43;2.95;;;1.48;;
70216;SDS011;65567;55.684;37.570;2024-01-10T00:58:09;2.05;;;1.00;;
70216;SDS011;65567;55.684;37.570;2024-01-10T01:00:35;1.63;;;1.20;;
70216;SDS011;65567;55.684;37.570;2024-01-10T01:03:01;2.17;;;1.30;;
70216;SDS011;65567;55.684;37.570;2024-01-10T01:05:26;2.45;;;1.02;;
70216;SDS011;65567;55.684;37.570;2024-01-10T01:07:52;1.70;;;0.60;;
70216;SDS011;65567;55.684;37.570;2024-01-10T01:10:18;0.88;;;0.57;;
70216;SDS011;65567;55.684;37.570;2024-01-10T01:12:44;1.20;;;0.60;;
70216;SDS011;65567;55.684;37.570;2024-01-10T01:15:10;1.40;;;0.60;;
70216;SDS011;65567;55.684;37.570;2024-01-10T01:17:36;2.00;;;0.70;;
70216;SDS011;65567;55.684;37.570;2024-01-10T01:20:03;0.63;;;0.40;;
70216;SDS011;65567;55.684;37.570;2024-01-10T01:22:30;1.17;;;0.52;;
70216;SDS011;65567;55.684;37.570;2024-01-10T01:24:56;1.23;;;0.50;;
70216;SDS011;65567;55.684;37.570;2024-01-10T01:27:23;0.93;;;0.55;;
70216;SDS011;65567;55.684;37.570;2024-01-10T01:29:49;1.08;;;0.60;;
70216;SDS011;65567;55.684;37.570;2024-01-10T01:32:15;1.73;;;0.57;;
70216;SDS011;65567;55.684;37.570;2024-01-10T01:34:41;1.08;;;0.40;;
70216;SDS011;65567;55.684;37.570;2024-01-10T01:37:07;0.77;;;0.45;;
70216;SDS011;65567;55.684;37.570;2024-01-10T01:39:33;1.25;;;0.40;;
70216;SDS011;65567;55.684;37.570;2024-01-10T01:41:58;1.58;;;0.60;;
70216;SDS011;65567;55.684;37.570;2024-01-10T01:44:24;1.95;;;0.50;;
70216;SDS011;65567;55.684;37.570;2024-01-10T01:46:50;0.80;;;0.50;;
70216;SDS011;65567;55.684;37.570;2024-01-10T01:49:16;1.10;;;0.50;;
70216;SDS011;65567;55.684;37.570;2024-01-10T01:51:42;1.83;;;0.30;;
70216;SDS011;65567;55.684;37.570;2024-01-10T01:54:07;0.40;;;0.40;;
70216;SDS011;65567;55.684;37.570;2024-01-10T01:56:35;0.68;;;0.28;;
70216;SDS011;65567;55.684;37.570;2024-01-10T01:59:02;0.75;;;0.43;;
70216;SDS011;65567;55.684;37.570;2024-01-10T02:01:29;1.33;;;0.47;;
70216;SDS011;65567;55.684;37.570;2024-01-10T02:03:55;0.90;;;0.50;;
70216;SDS011;65567;55.684;37.570;2024-01-10T02:06:20;1.10;;;0.50;;
70216;SDS011;65567;55.684;37.570;2024-01-10T02:08:47;1.42;;;0.50;;
70216;SDS011;65567;55.684;37.570;2024-01-10T02:11:13;0.75;;;0.30;;
70216;SDS011;65567;55.684;37.570;2024-01-10T02:13:39;0.80;;;0.40;;
70216;SDS011;65567;55.684;37.570;2024-01-10T02:16:06;1.98;;;0.50;;
70216;SDS011;65567;55.684;37.570;2024-01-10T02:18:32;0.30;;;0.20;;
70216;SDS011;65567;55.684;37.570;2024-01-10T02:21:00;0.77;;;0.30;;
70216;SDS011;65567;55.684;37.570;2024-01-10T02:23:26;0.35;;;0.20;;
70216;SDS011;65567;55.684;37.570;2024-01-10T02:25:52;0.57;;;0.30;;
70216;SDS011;65567;55.684;37.570;2024-01-10T02:28:18;0.10;;;0.10;;
70216;SDS011;65567;55.684;37.570;2024-01-10T02:30:43;0.20;;;0.15;;
70216;SDS011;65567;55.684;37.570;2024-01-10T02:33:09;0.10;;;0.10;;
70216;SDS011;65567;55.684;37.570;2024-01-10T02:35:35;0.40;;;0.20;;
70216;SDS011;65567;55.684;37.570;2024-01-10T02:38:01;0.40;;;0.30;;
70216;SDS011;65567;55.684;37.570;2024-01-10T02:40:28;0.52;;;0.20;;
70216;SDS011;65567;55.684;37.570;2024-01-10T02:42:53;0.32;;;0.20;;
70216;SDS011;65567;55.684;37.570;2024-01-10T02:45:19;1.48;;;0.30;;
70216;SDS011;65567;55.684;37.570;2024-01-10T02:47:45;0.35;;;0.30;;
70216;SDS011;65567;55.684;37.570;2024-01-10T02:50:11;0.63;;;0.30;;
70216;SDS011;65567;55.684;37.570;2024-01-10T02:52:37;0.50;;;0.30;;
70216;SDS011;65567;55.684;37.570;2024-01-10T02:55:02;0.25;;;0.20;;
70216;SDS011;65567;55.684;37.570;2024-01-10T02:57:29;1.10;;;0.40;;
70216;SDS011;65567;55.684;37.570;2024-01-10T02:59:54;0.95;;;0.30;;
70216;SDS011;65567;55.684;37.570;2024-01-10T03:02:20;1.20;;;0.30;;
70216;SDS011;65567;55.684;37.570;2024-01-10T03:04:48;0.68;;;0.25;;
70216;SDS011;65567;55.684;37.570;2024-01-10T03:07:14;1.45;;;0.30;;
70216;SDS011;65567;55.684;37.570;2024-01-10T03:09:40;4.15;;;0.95;;
70216;SDS011;65567;55.684;37.570;2024-01-10T03:12:06;0.63;;;0.38;;
70216;SDS011;65567;55.684;37.570;2024-01-10T03:14:32;1.17;;;0.30;;
70216;SDS011;65567;55.684;37.570;2024-01-10T03:16:59;1.10;;;0.30;;
70216;SDS011;65567;55.684;37.570;2024-01-10T03:19:25;1.52;;;0.75;;
70216;SDS011;65567;55.684;37.570;2024-01-10T03:21:51;0.63;;;0.40;;
70216;SDS011;65567;55.684;37.570;2024-01-10T03:24:17;0.65;;;0.28;;
70216;SDS011;65567;55.684;37.570;2024-01-10T03:26:43;2.00;;;0.90;;
70216;SDS011;65567;55.684;37.570;2024-01-10T03:29:09;1.45;;;0.70;;
70216;SDS011;65567;55.684;37.570;2024-01-10T03:31:34;1.98;;;0.85;;
70216;SDS011;65567;55.684;37.570;2024-01-10T03:34:00;3.60;;;0.90;;
70216;SDS011;65567;55.684;37.570;2024-01-10T03:36:27;1.60;;;0.88;;
70216;SDS011;65567;55.684;37.570;2024-01-10T03:38:54;1.73;;;0.70;;
70216;SDS011;65567;55.684;37.570;2024-01-10T03:41:20;1.77;;;0.88;;
70216;SDS011;65567;55.684;37.570;2024-01-10T03:43:46;2.13;;;1.00;;
70216;SDS011;65567;55.684;37.570;2024-01-10T03:46:15;3.00;;;1.38;;
70216;SDS011;65567;55.684;37.570;2024-01-10T03:48:41;2.63;;;1.20;;
70216;SDS011;65567;55.684;37.570;2024-01-10T03:51:16;3.70;;;1.40;;
70216;SDS011;65567;55.684;37.570;2024-01-10T03:53:47;5.00;;;1.58;;
70216;SDS011;65567;55.684;37.570;2024-01-10T03:56:16;3.50;;;1.63;;
70216;SDS011;65567;55.684;37.570;2024-01-10T03:58:42;2.83;;;1.40;;
70216;SDS011;65567;55.684;37.570;2024-01-10T04:01:08;3.47;;;1.58;;
70216;SDS011;65567;55.684;37.570;2024-01-10T04:03:34;4.47;;;2.45;;
70216;SDS011;65567;55.684;37.570;2024-01-10T04:06:01;5.45;;;3.83;;
70216;SDS011;65567;55.684;37.570;2024-01-10T04:08:27;6.68;;;3.95;;
70216;SDS011;65567;55.684;37.570;2024-01-10T04:10:53;6.57;;;3.92;;
70216;SDS011;65567;55.684;37.570;2024-01-10T04:13:19;7.10;;;4.28;;
70216;SDS011;65567;55.684;37.570;2024-01-10T04:15:48;8.80;;;4.53;;
70216;SDS011;65567;55.684;37.570;2024-01-10T04:18:14;7.80;;;4.60;;
70216;SDS011;65567;55.684;37.570;2024-01-10T04:20:44;8.55;;;5.03;;
70216;SDS011;65567;55.684;37.570;2024-01-10T04:23:09;10.52;;;5.82;;
70216;SDS011;65567;55.684;37.570;2024-01-10T04:25:35;8.85;;;5.20;;
70216;SDS011;65567;55.684;37.570;2024-01-10T04:28:01;9.70;;;5.15;;
70216;SDS011;65567;55.684;37.570;2024-01-10T04:30:27;9.07;;;4.65;;
70216;SDS011;65567;55.684;37.570;2024-01-10T04:32:53;8.93;;;5.53;;
70216;SDS011;65567;55.684;37.570;2024-01-10T04:35:19;9.55;;;5.82;;
70216;SDS011;65567;55.684;37.570;2024-01-10T04:37:48;9.45;;;5.68;;
70216;SDS011;65567;55.684;37.570;2024-01-10T04:40:14;10.32;;;5.85;;
70216;SDS011;65567;55.684;37.570;2024-01-10T04:42:39;10.45;;;5.45;;
70216;SDS011;65567;55.684;37.570;2024-01-10T04:45:05;9.23;;;5.53;;
70216;SDS011;65567;55.684;37.570;2024-01-10T04:47:32;7.65;;;4.32;;
70216;SDS011;65567;55.684;37.570;2024-01-10T04:50:01;10.70;;;5.88;;
70216;SDS011;65567;55.684;37.570;2024-01-10T04:52:28;9.63;;;5.50;;
70216;SDS011;65567;55.684;37.570;2024-01-10T04:54:54;10.68;;;5.78;;
70216;SDS011;65567;55.684;37.570;2024-01-10T04:57:20;9.05;;;5.18;;
70216;SDS011;65567;55.684;37.570;2024-01-10T04:59:46;10.40;;;5.95;;
70216;SDS011;65567;55.684;37.570;2024-01-10T05:02:12;11.15;;;6.22;;
70216;SDS011;65567;55.684;37.570;2024-01-10T05:04:38;11.25;;;5.78;;
70216;SDS011;65567;55.684;37.570;2024-01-10T05:07:04;13.48;;;7.53;;
70216;SDS011;65567;55.684;37.570;2024-01-10T05:09:30;9.63;;;5.22;;
70216;SDS011;65567;55.684;37.570;2024-01-10T05:11:58;9.32;;;6.03;;
70216;SDS011;65567;55.684;37.570;2024-01-10T05:14:23;10.40;;;5.82;;
70216;SDS011;65567;55.684;37.570;2024-01-10T05:16:49;11.85;;;5.85;;
70216;SDS011;65567;55.684;37.570;2024-01-10T05:19:15;13.20;;;6.03;;
70216;SDS011;65567;55.684;37.570;2024-01-10T05:21:41;11.45;;;5.63;;
70216;SDS011;65567;55.684;37.570;2024-01-10T05:24:07;9.82;;;5.20;;
70216;SDS011;65567;55.684;37.570;2024-01-10T05:26:33;9.38;;;5.68;;
70216;SDS011;65567;55.684;37.570;2024-01-10T05:28:59;9.77;;;5.68;;
70216;SDS011;65567;55.684;37.570;2024-01-10T05:31:24;11.75;;;4.78;;
70216;SDS011;65567;55.684;37.570;2024-01-10T05:33:53;9.35;;;5.00;;
70216;SDS011;65567;55.684;37.570;2024-01-10T05:36:22;9.75;;;5.70;;
70216;SDS011;65567;55.684;37.570;2024-01-10T05:38:48;10.23;;;5.07;;
70216;SDS011;65567;55.684;37.570;2024-01-10T05:41:14;7.90;;;4.35;;
70216;SDS011;65567;55.684;37.570;2024-01-10T05:43:40;10.45;;;5.55;;
70216;SDS011;65567;55.684;37.570;2024-01-10T05:46:06;10.93;;;5.13;;
70216;SDS011;65567;55.684;37.570;2024-01-10T05:48:32;9.25;;;4.72;;
70216;SDS011;65567;55.684;37.570;2024-01-10T05:50:58;10.95;;;5.00;;
70216;SDS011;65567;55.684;37.570;2024-01-10T05:53:26;9.77;;;5.10;;
70216;SDS011;65567;55.684;37.570;2024-01-10T05:55:56;10.27;;;4.88;;
70216;SDS011;65567;55.684;37.570;2024-01-10T05:58:21;8.15;;;4.72;;
70216;SDS011;65567;55.684;37.570;2024-01-10T06:00:47;11.73;;;4.50;;
70216;SDS011;65567;55.684;37.570;2024-01-10T06:03:13;6.57;;;4.53;;
70216;SDS011;65567;55.684;37.570;2024-01-10T06:05:38;6.93;;;4.05;;
70216;SDS011;65567;55.684;37.570;2024-01-10T06:08:04;10.75;;;4.93;;
70216;SDS011;65567;55.684;37.570;2024-01-10T06:10:30;6.85;;;4.13;;
70216;SDS011;65567;55.684;37.570;2024-01-10T06:12:56;7.47;;;3.28;;
70216;SDS011;65567;55.684;37.570;2024-01-10T06:15:22;8.43;;;4.47;;
70216;SDS011;65567;55.684;37.570;2024-01-10T06:17:48;7.18;;;4.20;;
70216;SDS011;65567;55.684;37.570;2024-01-10T06:20:15;9.98;;;4.78;;
70216;SDS011;65567;55.684;37.570;2024-01-10T06:22:41;7.93;;;3.97;;
70216;SDS011;65567;55.684;37.570;2024-01-10T06:25:09;11.60;;;5.07;;
70216;SDS011;65567;55.684;37.570;2024-01-10T06:27:37;6.93;;;4.25;;
70216;SDS011;65567;55.684;37.570;2024-01-10T06:30:04;10.13;;;5.73;;
70216;SDS011;65567;55.684;37.570;2024-01-10T06:32:32;8.43;;;3.55;;
70216;SDS011;65567;55.684;37.570;2024-01-10T06:34:58;10.80;;;4.60;;
70216;SDS011;65567;55.684;37.570;2024-01-10T06:37:27;8.63;;;4.60;;
70216;SDS011;65567;55.684;37.570;2024-01-10T06:39:53;9.23;;;5.13;;
70216;SDS011;65567;55.684;37.570;2024-01-10T06:42:19;10.30;;;4.75;;
70216;SDS011;65567;55.684;37.570;2024-01-10T06:44:45;11.35;;;4.13;;
70216;SDS011;65567;55.684;37.570;2024-01-10T06:47:11;6.25;;;3.58;;
70216;SDS011;65567;55.684;37.570;2024-01-10T06:49:37;8.23;;;4.55;;
70216;SDS011;65567;55.684;37.570;2024-01-10T06:52:04;9.45;;;4.85;;
70216;SDS011;65567;55.684;37.570;2024-01-10T06:54:32;8.75;;;4.50;;
70216;SDS011;65567;55.684;37.570;2024-01-10T06:56:58;7.50;;;4.78;;
70216;SDS011;65567;55.684;37.570;2024-01-10T06:59:23;7.40;;;4.10;;
70216;SDS011;65567;55.684;37.570;2024-01-10T07:01:52;10.50;;;4.68;;
70216;SDS011;65567;55.684;37.570;2024-01-10T07:04:19;9.27;;;4.38;;
70216;SDS011;65567;55.684;37.570;2024-01-10T07:06:47;7.50;;;3.38;;
70216;SDS011;65567;55.684;37.570;2024-01-10T07:09:13;9.35;;;3.95;;
70216;SDS011;65567;55.684;37.570;2024-01-10T07:11:45;10.93;;;4.80;;
70216;SDS011;65567;55.684;37.570;2024-01-10T07:14:14;10.37;;;4.83;;
70216;SDS011;65567;55.684;37.570;2024-01-10T07:16:42;10.80;;;4.82;;
70216;SDS011;65567;55.684;37.570;2024-01-10T07:19:11;7.45;;;4.80;;
70216;SDS011;65567;55.684;37.570;2024-01-10T07:21:40;9.82;;;4.43;;
70216;SDS011;65567;55.684;37.570;2024-01-10T07:24:07;8.57;;;5.00;;
70216;SDS011;65567;55.684;37.570;2024-01-10T07:29:02;12.70;;;4.65;;
70216;SDS011;65567;55.684;37.570;2024-01-10T07:31:29;7.05;;;3.88;;
70216;SDS011;65567;55.684;37.570;2024-01-10T07:33:58;8.25;;;4.53;;
70216;SDS011;65567;55.684;37.570;2024-01-10T07:36:24;8.20;;;4.70;;
70216;SDS011;65567;55.684;37.570;2024-01-10T07:38:55;10.68;;;4.60;;
70216;SDS011;65567;55.684;37.570;2024-01-10T07:41:22;9.55;;;4.55;;
70216;SDS011;65567;55.684;37.570;2024-01-10T07:43:49;10.13;;;5.38;;
70216;SDS011;65567;55.684;37.570;2024-01-10T07:46:14;11.75;;;6.18;;
70216;SDS011;65567;55.684;37.570;2024-01-10T07:48:40;10.40;;;5.43;;
70216;SDS011;65567;55.684;37.570;2024-01-10T07:51:06;13.68;;;6.07;;
70216;SDS011;65567;55.684;37.570;2024-01-10T07:53:32;8.82;;;5.38;;
70216;SDS011;65567;55.684;37.570;2024-01-10T07:55:58;10.75;;;4.80;;
70216;SDS011;65567;55.684;37.570;2024-01-10T07:58:24;9.90;;;4.70;;
70216;SDS011;65567;55.684;37.570;2024-01-10T08:00:50;12.20;;;4.90;;
70216;SDS011;65567;55.684;37.570;2024-01-10T08:03:16;10.48;;;5.50;;
70216;SDS011;65567;55.684;37.570;2024-01-10T08:05:42;8.65;;;4.60;;
70216;SDS011;65567;55.684;37.570;2024-01-10T08:08:08;8.70;;;5.50;;
70216;SDS011;65567;55.684;37.570;2024-01-10T08:10:34;12.43;;;5.55;;
70216;SDS011;65567;55.684;37.570;2024-01-10T08:13:00;11.98;;;5.80;;
70216;SDS011;65567;55.684;37.570;2024-01-10T08:15:26;9.43;;;5.30;;
70216;SDS011;65567;55.684;37.570;2024-01-10T08:17:51;12.35;;;5.82;;
70216;SDS011;65567;55.684;37.570;2024-01-10T08:20:18;11.00;;;5.03;;
70216;SDS011;65567;55.684;37.570;2024-01-10T08:22:46;7.40;;;3.75;;
70216;SDS011;65567;55.684;37.570;2024-01-10T08:25:13;11.63;;;5.63;;
70216;SDS011;65567;55.684;37.570;2024-01-10T08:27:41;10.10;;;5.47;;
70216;SDS011;65567;55.684;37.570;2024-01-10T08:30:07;9.98;;;5.40;;
70216;SDS011;65567;55.684;37.570;2024-01-10T08:32:35;8.45;;;4.90;;
70216;SDS011;65567;55.684;37.570;2024-01-10T08:35:02;11.90;;;5.57;;
70216;SDS011;65567;55.684;37.570;2024-01-10T08:37:34;9.13;;;4.60;;
70216;SDS011;65567;55.684;37.570;2024-01-10T08:40:00;6.60;;;3.83;;
70216;SDS011;65567;55.684;37.570;2024-01-10T08:42:31;7.70;;;4.85;;
70216;SDS011;65567;55.684;37.570;2024-01-10T08:44:57;7.65;;;4.53;;
70216;SDS011;65567;55.684;37.570;2024-01-10T08:47:23;6.57;;;4.13;;
70216;SDS011;65567;55.684;37.570;2024-01-10T08:49:49;7.82;;;4.43;;
70216;SDS011;65567;55.684;37.570;2024-01-10T08:52:16;7.07;;;3.90;;
70216;SDS011;65567;55.684;37.570;2024-01-10T08:54:42;7.35;;;4.65;;
70216;SDS011;65567;55.684;37.570;2024-01-10T08:57:08;8.70;;;4.85;;
70216;SDS011;65567;55.684;37.570;2024-01-10T08:59:34;8.40;;;4.22;;
70216;SDS011;65567;55.684;37.570;2024-01-10T09:02:00;8.38;;;4.20;;
70216;SDS011;65567;55.684;37.570;2024-01-10T09:04:25;9.23;;;5.25;;
70216;SDS011;65567;55.684;37.570;2024-01-10T09:06:51;9.77;;;5.22;;
70216;SDS011;65567;55.684;37.570;2024-01-10T09:09:17;9.43;;;5.05;;
70216;SDS011;65567;55.684;37.570;2024-01-10T09:11:48;8.57;;;4.50;;
70216;SDS011;65567;55.684;37.570;2024-01-10T09:14:14;8.98;;;4.85;;
70216;SDS011;65567;55.684;37.570;2024-01-10T09:16:40;26.05;;;5.32;;
70216;SDS011;65567;55.684;37.570;2024-01-10T09:19:06;8.05;;;4.72;;
70216;SDS011;65567;55.684;37.570;2024-01-10T09:21:33;8.88;;;4.50;;
70216;SDS011;65567;55.684;37.570;2024-01-10T09:23:58;12.80;;;5.50;;
70216;SDS011;65567;55.684;37.570;2024-01-10T09:26:24;9.32;;;5.00;;
70216;SDS011;65567;55.684;37.570;2024-01-10T09:28:50;9.23;;;5.40;;
70216;SDS011;65567;55.684;37.570;2024-01-10T09:31:16;10.57;;;5.43;;
70216;SDS011;65567;55.684;37.570;2024-01-10T09:33:42;15.13;;;5.32;;
70216;SDS011;65567;55.684;37.570;2024-01-10T09:36:08;11.18;;;5.80;;
70216;SDS011;65567;55.684;37.570;2024-01-10T09:38:36;10.20;;;5.22;;
70216;SDS011;65567;55.684;37.570;2024-01-10T09:41:02;7.80;;;4.63;;
70216;SDS011;65567;55.684;37.570;2024-01-10T09:43:33;9.40;;;4.95;;
70216;SDS011;65567;55.684;37.570;2024-01-10T09:46:00;9.00;;;5.00;;
70216;SDS011;65567;55.684;37.570;2024-01-10T09:48:27;10.05;;;5.20;;
70216;SDS011;65567;55.684;37.570;2024-01-10T09:50:57;10.77;;;4.93;;
70216;SDS011;65567;55.684;37.570;2024-01-10T09:53:25;10.52;;;5.05;;
70216;SDS011;65567;55.684;37.570;2024-01-10T09:55:52;10.10;;;5.13;;
70216;SDS011;65567;55.684;37.570;2024-01-10T09:58:25;12.45;;;5.32;;
70216;SDS011;65567;55.684;37.570;2024-01-10T10:00:51;11.40;;;5.25;;
70216;SDS011;65567;55.684;37.570;2024-01-10T10:03:21;11.27;;;4.93;;
70216;SDS011;65567;55.684;37.570;2024-01-10T10:05:47;8.90;;;4.53;;
70216;SDS011;65567;55.684;37.570;2024-01-10T10:08:13;9.15;;;4.68;;
70216;SDS011;65567;55.684;37.570;2024-01-10T10:10:40;9.77;;;5.38;;
70216;SDS011;65567;55.684;37.570;2024-01-10T10:13:10;8.93;;;4.57;;
70216;SDS011;65567;55.684;37.570;2024-01-10T10:16:07;8.20;;;4.30;;
70216;SDS011;65567;55.684;37.570;2024-01-10T10:18:38;13.57;;;7.90;;
70216;SDS011;65567;55.684;37.570;2024-01-10T10:21:08;11.45;;;4.70;;
70216;SDS011;65567;55.684;37.570;2024-01-10T10:23:35;8.68;;;4.75;;
70216;SDS011;65567;55.684;37.570;2024-01-10T10:26:12;9.88;;;4.55;;
70216;SDS011;65567;55.684;37.570;2024-01-10T10:28:44;9.35;;;4.38;;
70216;SDS011;65567;55.684;37.570;2024-01-10T10:31:10;10.75;;;4.78;;
70216;SDS011;65567;55.684;37.570;2024-01-10T10:33:37;8.95;;;4.28;;
70216;SDS011;65567;55.684;37.570;2024-01-10T10:36:03;8.70;;;4.45;;
70216;SDS011;65567;55.684;37.570;2024-01-10T10:38:29;13.27;;;5.40;;
70216;SDS011;65567;55.684;37.570;2024-01-10T10:40:55;10.13;;;4.38;;
70216;SDS011;65567;55.684;37.570;2024-01-10T10:43:21;9.15;;;4.43;;
70216;SDS011;65567;55.684;37.570;2024-01-10T10:45:47;10.25;;;4.40;;
70216;SDS011;65567;55.684;37.570;2024-01-10T10:48:18;6.90;;;4.10;;
70216;SDS011;65567;55.684;37.570;2024-01-10T10:51:07;8.32;;;4.38;;
70216;SDS011;65567;55.684;37.570;2024-01-10T10:53:35;9.32;;;4.35;;
70216;SDS011;65567;55.684;37.570;2024-01-10T10:56:02;8.45;;;4.85;;
70216;SDS011;65567;55.684;37.570;2024-01-10T10:58:32;6.85;;;4.55;;
70216;SDS011;65567;55.684;37.570;2024-01-10T11:01:01;8.60;;;4.30;;
70216;SDS011;65567;55.684;37.570;2024-01-10T11:03:30;9.77;;;4.90;;
70216;SDS011;65567;55.684;37.570;2024-01-10T11:06:00;9.80;;;4.85;;
70216;SDS011;65567;55.684;37.570;2024-01-10T11:08:52;9.90;;;4.78;;
70216;SDS011;65567;55.684;37.570;2024-01-10T11:16:58;9.75;;;5.43;;
70216;SDS011;65567;55.684;37.570;2024-01-10T11:19:38;9.73;;;5.38;;
70216;SDS011;65567;55.684;37.570;2024-01-10T11:25:15;7.30;;;4.60;;
70216;SDS011;65567;55.684;37.570;2024-01-10T11:27:43;10.07;;;4.82;;
70216;SDS011;65567;55.684;37.570;2024-01-10T11:30:12;7.25;;;4.53;;
70216;SDS011;65567;55.684;37.570;2024-01-10T11:32:40;9.20;;;5.15;;
70216;SDS011;65567;55.684;37.570;2024-01-10T11:35:15;9.20;;;5.28;;
70216;SDS011;65567;55.684;37.570;2024-01-10T11:37:45;11.68;;;5.57;;
70216;SDS011;65567;55.684;37.570;2024-01-10T11:40:16;8.20;;;5.05;;
70216;SDS011;65567;55.684;37.570;2024-01-10T11:43:13;7.97;;;4.43;;
70216;SDS011;65567;55.684;37.570;2024-01-10T11:45:50;9.18;;;5.10;;
70216;SDS011;65567;55.684;37.570;2024-01-10T11:48:28;8.52;;;4.90;;
70216;SDS011;65567;55.684;37.570;2024-01-10T11:50:58;9.88;;;4.72;;
70216;SDS011;65567;55.684;37.570;2024-01-10T11:53:44;9.27;;;5.28;;
70216;SDS011;65567;55.684;37.570;2024-01-10T11:56:15;8.38;;;5.25;;
70216;SDS011;65567;55.684;37.570;2024-01-10T11:58:52;8.13;;;5.05;;
70216;SDS011;65567;55.684;37.570;2024-01-10T12:01:35;8.07;;;4.93;;
70216;SDS011;65567;55.684;37.570;2024-01-10T12:04:01;10.27;;;4.97;;
70216;SDS011;65567;55.684;37.570;2024-01-10T12:06:33;9.93;;;5.05;;
70216;SDS011;65567;55.684;37.570;2024-01-10T12:09:04;9.48;;;5.28;;
70216;SDS011;65567;55.684;37.570;2024-01-10T12:11:34;12.45;;;5.18;;
70216;SDS011;65567;55.684;37.570;2024-01-10T12:14:04;8.27;;;5.32;;
70216;SDS011;65567;55.684;37.570;2024-01-10T12:16:32;8.55;;;5.30;;
70216;SDS011;65567;55.684;37.570;2024-01-10T12:18:58;12.57;;;5.63;;
70216;SDS011;65567;55.684;37.570;2024-01-10T12:21:26;9.50;;;5.18;;
70216;SDS011;65567;55.684;37.570;2024-01-10T12:23:52;10.98;;;5.63;;
70216;SDS011;65567;55.684;37.570;2024-01-10T12:26:18;11.18;;;5.75;;
70216;SDS011;65567;55.684;37.570;2024-01-10T12:28:55;11.98;;;5.68;;
70216;SDS011;65567;55.684;37.570;2024-01-10T12:31:22;11.35;;;6.25;;
70216;SDS011;65567;55.684;37.570;2024-01-10T12:33:49;10.90;;;5.78;;
70216;SDS011;65567;55.684;37.570;2024-01-10T12:36:16;11.45;;;6.00;;
70216;SDS011;65567;55.684;37.570;2024-01-10T12:38:43;12.45;;;5.88;;
70216;SDS011;65567;55.684;37.570;2024-01-10T12:41:12;10.35;;;6.15;;
70216;SDS011;65567;55.684;37.570;2024-01-10T12:43:40;9.57;;;5.72;;
70216;SDS011;65567;55.684;37.570;2024-01-10T12:48:32;9.95;;;5.07;;
70216;SDS011;65567;55.684;37.570;2024-01-10T12:51:01;8.45;;;4.97;;
70216;SDS011;65567;55.684;37.570;2024-01-10T12:53:50;9.98;;;4.68;;
70216;SDS011;65567;55.684;37.570;2024-01-10T12:56:17;9.57;;;4.68;;
70216;SDS011;65567;55.684;37.570;2024-01-10T12:58:43;7.93;;;4.82;;
70216;SDS011;65567;55.684;37.570;2024-01-10T13:01:09;8.00;;;4.57;;
70216;SDS011;65567;55.684;37.570;2024-01-10T13:03:35;9.10;;;4.80;;
70216;SDS011;65567;55.684;37.570;2024-01-10T13:06:01;8.57;;;4.78;;
70216;SDS011;65567;55.684;37.570;2024-01-10T13:08:27;9.02;;;5.22;;
70216;SDS011;65567;55.684;37.570;2024-01-10T13:10:53;7.53;;;4.43;;
70216;SDS011;65567;55.684;37.570;2024-01-10T13:13:19;9.48;;;5.38;;
70216;SDS011;65567;55.684;37.570;2024-01-10T13:15:47;10.65;;;5.05;;
70216;SDS011;65567;55.684;37.570;2024-01-10T13:18:14;9.55;;;4.90;;
70216;SDS011;65567;55.684;37.570;2024-01-10T13:20:43;7.22;;;4.22;;
70216;SDS011;65567;55.684;37.570;2024-01-10T13:23:08;8.35;;;4.72;;
70216;SDS011;65567;55.684;37.570;2024-01-10T13:25:35;9.35;;;4.18;;
70216;SDS011;65567;55.684;37.570;2024-01-10T13:28:02;8.23;;;5.07;;
70216;SDS011;65567;55.684;37.570;2024-01-10T13:30:29;8.07;;;5.25;;
70216;SDS011;65567;55.684;37.570;2024-01-10T13:32:55;10.90;;;4.75;;
70216;SDS011;65567;55.684;37.570;2024-01-10T13:35:24;9.85;;;4.90;;
70216;SDS011;65567;55.684;37.570;2024-01-10T13:37:50;10.18;;;3.97;;
70216;SDS011;65567;55.684;37.570;2024-01-10T13:40:15;9.65;;;4.57;;
70216;SDS011;65567;55.684;37.570;2024-01-10T13:42:42;12.85;;;6.30;;
70216;SDS011;65567;55.684;37.570;2024-01-10T13:45:09;9.45;;;5.38;;
70216;SDS011;65567;55.684;37.570;2024-01-10T13:47:41;6.95;;;4.13;;
70216;SDS011;65567;55.684;37.570;2024-01-10T13:50:07;8.55;;;4.35;;
70216;SDS011;65567;55.684;37.570;2024-01-10T13:52:34;9.85;;;4.95;;
70216;SDS011;65567;55.684;37.570;2024-01-10T13:55:03;7.65;;;4.60;;
70216;SDS011;65567;55.684;37.570;2024-01-10T13:57:30;8.98;;;4.32;;
70216;SDS011;65567;55.684;37.570;2024-01-10T13:59:59;9.05;;;4.80;;
70216;SDS011;65567;55.684;37.570;2024-01-10T14:02:26;8.20;;;4.68;;
70216;SDS011;65567;55.684;37.570;2024-01-10T14:04:54;10.02;;;4.50;;
70216;SDS011;65567;55.684;37.570;2024-01-10T14:07:22;9.68;;;4.78;;
70216;SDS011;65567;55.684;37.570;2024-01-10T14:09:49;7.70;;;4.60;;
70216;SDS011;65567;55.684;37.570;2024-01-10T14:12:15;9.23;;;5.10;;
70216;SDS011;65567;55.684;37.570;2024-01-10T14:14:43;8.00;;;4.15;;
70216;SDS011;65567;55.684;37.570;2024-01-10T14:17:09;7.63;;;4.03;;
70216;SDS011;65567;55.684;37.570;2024-01-10T14:19:35;8.55;;;4.25;;
70216;SDS011;65567;55.684;37.570;2024-01-10T14:22:01;2.97;;;1.40;;
70216;SDS011;65567;55.684;37.570;2024-01-10T14:24:27;12.38;;;3.55;;
70216;SDS011;65567;55.684;37.570;2024-01-10T14:26:52;8.10;;;2.08;;
70216;SDS011;65567;55.684;37.570;2024-01-10T14:29:19;4.07;;;1.83;;
70216;SDS011;65567;55.684;37.570;2024-01-10T14:31:47;10.88;;;5.00;;
70216;SDS011;65567;55.684;37.570;2024-01-10T14:34:14;6.88;;;4.07;;
70216;SDS011;65567;55.684;37.570;2024-01-10T14:36:43;8.20;;;3.45;;
70216;SDS011;65567;55.684;37.570;2024-01-10T14:39:09;5.60;;;2.72;;
70216;SDS011;65567;55.684;37.570;2024-01-10T14:41:38;7.75;;;4.22;;
70216;SDS011;65567;55.684;37.570;2024-01-10T14:44:05;7.20;;;4.00;;
70216;SDS011;65567;55.684;37.570;2024-01-10T14:46:31;10.13;;;5.10;;